createdAt,value
2018-09-17T18:05:50.528Z,73.50
2018-09-17T18:06:56.015Z,72.30
2018-09-17T18:08:01.611Z,72.70
2018-09-17T18:09:13.880Z,72.50
2018-09-17T18:10:20.217Z,72.40
2018-09-17T18:11:25.336Z,72.40
2018-09-17T18:12:32.236Z,72.60
2018-09-17T18:13:36.864Z,72.00
2018-09-17T18:14:43.003Z,71.50
2018-09-17T18:16:22.693Z,70.30
2018-09-17T18:17:28.343Z,60.90
2018-09-17T18:18:40.233Z,61.50
2018-09-17T18:19:49.658Z,55.50
2018-09-17T18:20:54.555Z,60.20
2018-09-17T18:21:59.393Z,60.00
2018-09-17T18:23:05.374Z,60.00
2018-09-17T18:24:10.618Z,61.10
2018-09-17T18:25:18.469Z,53.90
2018-09-17T18:26:23.409Z,58.90
2018-09-17T18:27:29.754Z,57.90
2018-09-17T18:28:41.894Z,57.40
2018-09-17T18:29:49.657Z,58.80
2018-09-17T18:30:54.255Z,57.60
2018-09-17T18:31:59.884Z,54.80
2018-09-17T18:33:06.896Z,56.40
2018-09-17T18:34:12.847Z,57.40
2018-09-17T18:35:17.959Z,57.70
2018-09-17T18:36:26.595Z,57.80
2018-09-17T18:37:31.180Z,58.40
2018-09-17T18:38:36.145Z,58.50
2018-09-17T18:39:41.530Z,58.50
2018-09-17T18:40:51.156Z,58.70
2018-09-17T18:41:58.770Z,59.00
2018-09-17T18:43:05.232Z,57.80
2018-09-17T18:44:11.048Z,57.80
2018-09-17T18:45:16.271Z,57.80
2018-09-17T18:46:23.399Z,58.70
2018-09-17T18:47:30.659Z,58.20
2018-09-17T18:48:36.291Z,58.60
2018-09-17T18:49:42.408Z,57.50
2018-09-17T18:50:56.409Z,58.30
2018-09-17T18:52:06.120Z,58.20
2018-09-17T18:53:15.704Z,58.50
2018-09-17T18:54:29.877Z,59.10
2018-09-17T18:55:37.025Z,59.00
2018-09-17T18:56:46.541Z,58.80
2018-09-17T18:57:53.980Z,59.40
2018-09-17T18:59:01.763Z,59.60
2018-09-17T19:00:09.600Z,59.20
2018-09-17T19:01:19.824Z,55.40
2018-09-17T19:02:29.758Z,58.10
2018-09-17T19:03:37.769Z,59.20
2018-09-17T19:04:42.856Z,59.20
2018-09-17T19:05:48.892Z,59.40
2018-09-17T19:06:55.988Z,59.50
2018-09-17T19:08:03.480Z,59.00
2018-09-17T19:09:11.147Z,60.00
2018-09-17T19:10:17.846Z,60.00
2018-09-17T19:11:23.518Z,60.00
2018-09-17T19:12:30.066Z,59.00
2018-09-17T19:13:44.379Z,59.10
2018-09-17T19:14:56.171Z,59.30
2018-09-17T19:16:02.120Z,57.60
2018-09-17T19:19:15.672Z,55.70
2018-09-17T19:20:21.375Z,56.40
2018-09-17T19:21:38.445Z,56.30
2018-09-17T19:24:55.800Z,58.00
2018-09-17T19:26:01.258Z,56.70
2018-09-17T19:27:12.437Z,55.50
2018-09-17T19:28:24.444Z,55.60
2018-09-17T19:29:32.639Z,55.30
2018-09-17T19:30:39.295Z,55.20
2018-09-17T19:31:45.320Z,55.00
2018-09-17T19:32:50.741Z,55.40
2018-09-17T19:33:59.712Z,56.20
2018-09-17T19:35:05.901Z,56.30
2018-09-17T19:37:21.209Z,55.10
2018-09-17T19:38:39.655Z,55.30
2018-09-17T19:40:01.007Z,56.00
2018-09-17T19:41:12.634Z,56.10
2018-09-17T19:42:24.069Z,55.40
2018-09-17T19:43:36.711Z,55.30
2018-09-17T19:46:18.887Z,55.40
2018-09-17T19:51:42.529Z,54.70
2018-09-17T19:52:47.812Z,54.80
2018-09-17T19:53:56.971Z,55.60
2018-09-17T19:55:03.622Z,53.80
2018-09-17T19:56:22.470Z,53.50
2018-09-17T19:57:48.103Z,53.80
2018-09-17T19:59:00.051Z,53.90
2018-09-17T20:00:10.995Z,55.50
2018-09-17T20:01:17.932Z,55.00
2018-09-17T20:02:27.527Z,55.20
2018-09-17T20:03:34.258Z,55.10
2018-09-17T20:06:49.316Z,55.00
2018-09-17T20:07:58.456Z,55.00
2018-09-17T20:09:16.573Z,54.50
2018-09-17T20:10:24.327Z,54.50
2018-09-17T20:12:32.612Z,55.50
2018-09-17T20:13:50.611Z,54.70
2018-09-17T20:15:09.658Z,54.90
2018-09-17T20:16:31.438Z,54.50
2018-09-17T20:17:41.177Z,54.60
2018-09-17T20:18:50.789Z,54.70
2018-09-17T20:19:56.558Z,55.20
2018-09-17T20:21:03.241Z,55.80
2018-09-17T20:22:09.963Z,55.80
2018-09-17T20:23:17.010Z,56.10
2018-09-17T20:24:22.101Z,55.50
2018-09-17T20:25:31.186Z,55.30
2018-09-17T20:26:41.316Z,55.10
2018-09-17T20:27:47.995Z,55.00
2018-09-17T20:28:56.701Z,54.20
2018-09-17T20:30:03.554Z,54.60
2018-09-17T20:31:19.589Z,54.70
2018-09-17T20:32:27.026Z,54.80
2018-09-17T20:33:47.419Z,55.00
2018-09-17T20:34:54.258Z,55.30
2018-09-17T20:36:00.930Z,55.40
2018-09-17T20:37:06.872Z,55.60
2018-09-17T20:38:13.241Z,55.60
2018-09-17T20:39:18.702Z,55.20
2018-09-17T20:40:24.867Z,55.30
2018-09-17T20:41:43.765Z,54.50
2018-09-17T20:42:50.901Z,55.90
2018-09-17T20:43:58.021Z,55.70
2018-09-17T20:45:13.521Z,55.70
2018-09-17T20:46:18.712Z,55.30
2018-09-17T20:47:23.902Z,55.60
2018-09-17T20:50:09.419Z,55.80
2018-09-17T20:51:14.563Z,55.20
2018-09-17T20:52:19.113Z,55.60
2018-09-17T20:53:24.332Z,55.00
2018-09-17T20:57:17.747Z,58.40
2018-09-17T20:58:24.318Z,55.70
2018-09-17T20:59:29.950Z,56.30
2018-09-17T21:00:35.364Z,56.00
2018-09-17T21:01:41.952Z,56.50
2018-09-17T21:02:47.527Z,56.20
2018-09-17T21:03:52.219Z,56.20
2018-09-17T21:04:57.281Z,56.30
2018-09-17T21:06:08.720Z,56.30
2018-09-17T21:07:16.260Z,56.70
2018-09-17T21:08:21.742Z,56.80
2018-09-17T21:09:27.044Z,56.60
2018-09-17T21:10:36.808Z,56.80
2018-09-17T21:11:45.100Z,57.00
2018-09-17T21:12:50.519Z,57.00
2018-09-17T21:13:56.909Z,57.10
2018-09-17T21:15:01.377Z,57.30
2018-09-17T21:16:06.695Z,57.60
2018-09-17T21:17:13.626Z,57.90
2018-09-17T21:18:18.870Z,57.80
2018-09-17T21:19:24.895Z,58.40
2018-09-17T21:20:31.315Z,58.60
2018-09-17T21:21:36.232Z,58.60
2018-09-17T21:22:41.747Z,58.50
2018-09-17T21:23:49.476Z,58.70
2018-09-17T21:24:56.092Z,59.10
2018-09-17T21:26:00.913Z,58.90
2018-09-17T21:27:06.720Z,59.00
2018-09-17T21:28:11.619Z,58.10
2018-09-17T21:29:19.200Z,59.00
2018-09-17T21:30:25.919Z,58.90
2018-09-17T21:31:34.407Z,59.00
2018-09-17T21:32:39.651Z,58.90
2018-09-17T21:33:46.295Z,59.20
2018-09-17T21:34:51.851Z,59.20
2018-09-17T21:35:58.732Z,59.60
2018-09-17T21:37:05.916Z,59.30
2018-09-17T21:38:12.452Z,59.10
2018-09-17T21:39:28.241Z,59.10
2018-09-17T21:40:33.657Z,59.20
2018-09-17T21:41:44.281Z,59.50
2018-09-17T21:42:55.024Z,59.60
2018-09-17T21:44:01.220Z,59.80
2018-09-17T21:45:10.206Z,60.10
2018-09-17T21:46:15.721Z,60.50
2018-09-17T21:47:20.501Z,60.40
2018-09-17T21:48:32.258Z,60.50
2018-09-17T21:49:46.896Z,60.40
2018-09-17T21:52:38.442Z,60.10
2018-09-17T21:53:44.165Z,61.30
2018-09-17T21:54:50.294Z,61.30
2018-09-17T21:55:55.879Z,61.10
2018-09-17T21:57:04.361Z,60.30
2018-09-17T21:58:17.987Z,60.10
2018-09-17T21:59:26.332Z,60.50
2018-09-17T22:00:36.795Z,60.20
2018-09-17T22:01:44.168Z,60.90
2018-09-17T22:02:51.583Z,60.60
2018-09-17T22:03:58.239Z,60.90
2018-09-17T22:05:03.356Z,60.40
2018-09-17T22:06:09.577Z,60.30
2018-09-17T22:07:16.009Z,61.10
2018-09-17T22:08:23.259Z,61.70
2018-09-17T22:09:31.037Z,62.10
2018-09-17T22:10:37.070Z,62.30
2018-09-17T22:11:49.050Z,62.60
2018-09-17T22:12:53.467Z,63.10
2018-09-17T22:14:00.506Z,63.10
2018-09-17T22:15:06.730Z,63.20
2018-09-17T22:16:11.592Z,63.40
2018-09-17T22:17:17.814Z,63.40
2018-09-17T22:18:23.981Z,63.50
2018-09-17T22:19:29.683Z,63.90
2018-09-17T22:20:43.919Z,64.10
2018-09-17T22:21:49.263Z,63.50
2018-09-17T22:22:55.388Z,63.70
2018-09-17T22:23:59.950Z,64.10
2018-09-17T22:26:26.366Z,64.70
2018-09-17T22:27:32.832Z,64.50
2018-09-17T22:28:39.569Z,64.20
2018-09-17T22:29:45.296Z,64.50
2018-09-17T22:30:51.242Z,64.60
2018-09-17T22:31:58.432Z,64.90
2018-09-17T22:33:07.731Z,65.40
2018-09-17T22:34:13.644Z,65.50
2018-09-17T22:35:18.682Z,66.20
2018-09-17T22:36:25.395Z,66.80
2018-09-17T22:37:35.966Z,66.40
2018-09-17T22:38:50.389Z,66.30
2018-09-17T22:40:07.477Z,66.10
2018-09-17T22:41:12.814Z,65.60
2018-09-17T22:42:28.867Z,66.70
2018-09-17T22:43:34.409Z,66.90
2018-09-17T22:44:39.592Z,67.30
2018-09-17T22:45:44.062Z,67.00
2018-09-17T22:46:48.478Z,66.50
2018-09-17T22:47:52.858Z,66.00
2018-09-17T22:48:57.257Z,65.80
2018-09-17T22:50:03.117Z,65.60
2018-09-17T22:51:07.893Z,65.60
2018-09-17T22:52:12.842Z,65.50
2018-09-17T22:53:17.667Z,66.30
2018-09-17T22:54:23.154Z,66.50
2018-09-17T22:55:27.726Z,66.80
2018-09-17T22:56:32.641Z,66.60
2018-09-17T22:57:37.732Z,66.10
2018-09-17T22:58:42.987Z,65.70
2018-09-17T22:59:50.884Z,65.60
2018-09-17T23:00:55.859Z,65.70
2018-09-17T23:02:01.762Z,65.50
2018-09-17T23:03:06.915Z,66.60
2018-09-17T23:04:12.040Z,66.20
2018-09-17T23:05:16.378Z,66.40
2018-09-17T23:06:20.976Z,65.90
2018-09-17T23:07:25.371Z,65.80
2018-09-17T23:08:29.884Z,65.80
2018-09-17T23:09:35.085Z,66.00
2018-09-17T23:10:39.497Z,67.30
2018-09-17T23:11:44.672Z,66.60
2018-09-17T23:12:49.539Z,66.30
2018-09-17T23:13:53.945Z,66.20
2018-09-17T23:14:58.547Z,66.20
2018-09-17T23:16:07.331Z,66.70
2018-09-17T23:17:13.300Z,66.50
2018-09-17T23:18:19.726Z,66.40
2018-09-17T23:19:24.612Z,66.40
2018-09-17T23:20:29.287Z,66.30
2018-09-17T23:21:34.216Z,66.20
2018-09-17T23:22:39.678Z,66.20
2018-09-17T23:23:45.222Z,66.30
2018-09-17T23:24:50.433Z,66.30
2018-09-17T23:25:54.732Z,67.60
2018-09-17T23:26:59.978Z,68.10
2018-09-17T23:28:04.604Z,68.10
2018-09-17T23:29:08.934Z,67.20
2018-09-17T23:30:13.642Z,66.80
2018-09-17T23:31:18.037Z,66.60
2018-09-17T23:32:22.485Z,66.50
2018-09-17T23:33:27.040Z,66.30
2018-09-17T23:34:32.073Z,66.30
2018-09-17T23:35:36.474Z,66.10
2018-09-17T23:36:41.598Z,66.10
2018-09-17T23:37:46.811Z,66.10
2018-09-17T23:38:51.284Z,66.10
2018-09-17T23:39:56.328Z,66.30
2018-09-17T23:41:00.800Z,66.30
2018-09-17T23:42:05.294Z,67.40
2018-09-17T23:43:10.371Z,67.50
2018-09-17T23:44:14.729Z,68.00
2018-09-17T23:45:19.078Z,67.80
2018-09-17T23:46:24.250Z,67.30
2018-09-17T23:47:28.613Z,67.00
2018-09-17T23:48:33.150Z,67.60
2018-09-17T23:49:37.586Z,68.10
2018-09-17T23:50:42.047Z,68.00
2018-09-17T23:51:46.464Z,68.00
2018-09-17T23:52:51.245Z,68.20
2018-09-17T23:53:55.665Z,67.60
2018-09-17T23:55:00.303Z,67.90
2018-09-17T23:56:04.696Z,68.60
2018-09-17T23:57:09.132Z,69.10
2018-09-17T23:58:14.050Z,68.90
2018-09-17T23:59:18.510Z,68.50
